Terminal Aerodrome Forecast
Issued by NWS

Home | Current Version | Previous Version | Text Only | Print | Product List | Glossary On
Versions: 1 2 3 4 5 6 7 8 9 10 11 12 13 14 15 16 17 18 19 20 21 22 23 24
000
FTUS41 KRLX 301731 CCA
TAFCKB
TAF COR
KCKB 301731Z 3018/3118 08004KT P6SM OVC060
     FM302100 17009G16KT P6SM BKN090
     FM311100 15007KT 6SM SHRA OVC040
     FM311200 15007KT 4SM SHRA OVC040
     FM311500 17007KT 3SM SHRA OVC015=

USA.gov is the U.S. government's official web portal to all federal, state and local government web resources and services.